Time;durP1;ratioP1;P1;durP2;ratioP2;P2;SDS_P1;SDS_P2;PMS_P1;PMS_P2;Temp;Humidity;BMP_temperature;BMP_pressure;BME280_temperature;BME280_humidity;BME280_pressure;Samples;Min_cycle;Max_cycle;Signal;HPM_P1;HPM_P2
2022/04/30 00:02:25;;;;;;;;;;;15.30;66.80;;;;;;5056481;28;19940;-69
2022/04/30 00:04:52;;;;;;;;;;;15.30;66.90;;;;;;5063261;28;19982;-69
2022/04/30 00:07:20;;;;;;;;;;;15.20;67.00;;;;;;5059037;28;19932;-68
2022/04/30 00:09:47;;;;;;;;;;;15.30;67.10;;;;;;5059744;28;20405;-67
2022/04/30 00:12:15;;;;;;;;;;;15.20;67.20;;;;;;5060902;28;20449;-69
2022/04/30 00:14:41;;;;;;;;;;;15.20;67.20;;;;;;5063448;28;19932;-69
2022/04/30 00:17:08;;;;;;;;;;;15.20;67.40;;;;;;5055931;28;20005;-70
2022/04/30 00:19:34;;;;;;;;;;;15.20;67.50;;;;;;5056312;28;20366;-69
2022/04/30 00:22:01;;;;;;;;;;;15.20;67.70;;;;;;5060620;28;20590;-70
2022/04/30 00:24:29;;;;;;;;;;;15.20;67.90;;;;;;5057093;28;20736;-68
2022/04/30 00:26:56;;;;;;;;;;;15.20;68.10;;;;;;5058620;28;19929;-69
2022/04/30 00:29:23;;;;;;;;;;;15.10;67.70;;;;;;5056383;28;20380;-69
2022/04/30 00:31:50;;;;;;;;;;;15.10;68.80;;;;;;5050144;28;19933;-68
2022/04/30 00:34:16;;;;;;;;;;;15.10;69.00;;;;;;5055475;28;19928;-68
2022/04/30 00:36:43;;;;;;;;;;;15.00;69.30;;;;;;5053908;28;19936;-68
2022/04/30 00:39:09;;;;;;;;;;;15.10;69.00;;;;;;5056800;28;20045;-68
2022/04/30 00:41:41;;;;;;;;;;;15.00;69.80;;;;;;5056108;28;19928;-67
2022/04/30 00:44:07;;;;;;;;;;;15.00;69.70;;;;;;5057985;28;19928;-69
2022/04/30 00:46:34;;;;;;;;;;;15.00;69.90;;;;;;5052908;28;19943;-70
2022/04/30 00:49:02;;;;;;;;;;;14.90;69.30;;;;;;5057390;28;19933;-68
2022/04/30 00:51:28;;;;;;;;;;;15.00;70.10;;;;;;5053673;28;19940;-69
2022/04/30 00:53:56;;;;;;;;;;;14.90;70.20;;;;;;5060837;28;20510;-68
2022/04/30 00:56:24;;;;;;;;;;;14.90;70.60;;;;;;5057361;28;19929;-68
2022/04/30 00:58:54;;;;;;;;;;;14.90;70.80;;;;;;5060621;28;19936;-69
2022/04/30 01:01:21;;;;;;;;;;;14.90;71.00;;;;;;5058997;28;19936;-68
2022/04/30 01:03:47;;;;;;;;;;;14.80;71.00;;;;;;5061057;28;20789;-66
2022/04/30 01:06:14;;;;;;;;;;;14.80;71.30;;;;;;5061493;28;19928;-69
2022/04/30 01:08:40;;;;;;;;;;;14.80;71.10;;;;;;5057810;28;20002;-69
2022/04/30 01:11:07;;;;;;;;;;;14.80;72.40;;;;;;5060698;28;19982;-68
2022/04/30 01:13:35;;;;;;;;;;;14.80;71.60;;;;;;5060236;28;19936;-70
2022/04/30 01:16:03;;;;;;;;;;;14.80;71.80;;;;;;5050549;28;20277;-69
2022/04/30 01:18:30;;;;;;;;;;;14.80;72.00;;;;;;5062521;28;19936;-69
2022/04/30 01:21:00;;;;;;;;;;;14.70;72.20;;;;;;5058789;28;20001;-68
2022/04/30 01:23:28;;;;;;;;;;;14.70;72.50;;;;;;5056328;28;20740;-69
2022/04/30 01:25:55;;;;;;;;;;;14.70;72.80;;;;;;5062975;28;20387;-68
2022/04/30 01:28:22;;;;;;;;;;;14.70;73.00;;;;;;5055196;28;19929;-69
2022/04/30 01:30:48;;;;;;;;;;;14.60;72.90;;;;;;5049750;28;19999;-68
2022/04/30 01:38:44;;;;;;;;;;;14.60;73.30;;;;;;5056004;28;19950;-70
2022/04/30 01:41:11;;;;;;;;;;;14.60;73.50;;;;;;5051028;28;20050;-68
2022/04/30 01:43:37;;;;;;;;;;;14.50;73.60;;;;;;5059537;28;19932;-69
2022/04/30 01:46:04;;;;;;;;;;;14.60;73.70;;;;;;5060027;28;19963;-68
2022/04/30 01:48:30;;;;;;;;;;;14.50;73.90;;;;;;5059594;28;19978;-68
2022/04/30 01:50:57;;;;;;;;;;;14.50;74.90;;;;;;5059729;28;20386;-68
2022/04/30 01:53:23;;;;;;;;;;;14.50;74.20;;;;;;5056177;28;20269;-68
2022/04/30 01:55:52;;;;;;;;;;;14.50;74.50;;;;;;5046673;28;19935;-68
2022/04/30 01:58:19;;;;;;;;;;;14.50;74.10;;;;;;5052434;28;20011;-68
2022/04/30 02:00:46;;;;;;;;;;;14.40;74.70;;;;;;5054080;28;19935;-68
2022/04/30 02:03:13;;;;;;;;;;;14.40;74.80;;;;;;5059954;28;19940;-66
2022/04/30 02:05:41;;;;;;;;;;;14.50;74.80;;;;;;5051922;28;20581;-68
2022/04/30 02:08:09;;;;;;;;;;;14.40;74.20;;;;;;5058233;28;19928;-67
2022/04/30 02:10:36;;;;;;;;;;;14.40;74.80;;;;;;5057453;28;20300;-68
2022/04/30 02:13:06;;;;;;;;;;;14.30;74.80;;;;;;5062144;28;19928;-68
2022/04/30 02:15:33;;;;;;;;;;;14.30;74.90;;;;;;5056258;28;20402;-68
2022/04/30 02:17:59;;;;;;;;;;;14.30;74.50;;;;;;5058486;28;19929;-67
2022/04/30 02:20:29;;;;;;;;;;;14.30;75.10;;;;;;5059922;28;19936;-68
2022/04/30 02:22:57;;;;;;;;;;;14.30;75.10;;;;;;5055446;28;19928;-68
2022/04/30 02:25:24;;;;;;;;;;;14.30;75.10;;;;;;5057604;28;20461;-67
2022/04/30 02:27:52;;;;;;;;;;;14.20;75.10;;;;;;5057283;28;19986;-68
2022/04/30 02:30:21;;;;;;;;;;;14.20;75.20;;;;;;5053790;28;19928;-68
2022/04/30 02:32:48;;;;;;;;;;;15.80;76.30;;;;;;5061074;28;19932;-66
2022/04/30 02:35:15;;;;;;;;;;;14.20;75.30;;;;;;5059734;28;20021;-68
2022/04/30 02:37:44;;;;;;;;;;;14.20;83.10;;;;;;5055169;28;19924;-66
2022/04/30 02:40:12;;;;;;;;;;;14.10;75.40;;;;;;5059568;28;19932;-66
2022/04/30 02:42:39;;;;;;;;;;;14.10;75.60;;;;;;5060307;28;20459;-68
2022/04/30 02:45:08;;;;;;;;;;;14.10;77.00;;;;;;5059631;28;19928;-67
2022/04/30 02:47:36;;;;;;;;;;;14.10;76.00;;;;;;5053224;28;19935;-69
2022/04/30 02:50:02;;;;;;;;;;;14.10;76.10;;;;;;5056503;28;19928;-67
2022/04/30 02:52:29;;;;;;;;;;;14.10;76.40;;;;;;5059264;28;19943;-67
2022/04/30 02:54:55;;;;;;;;;;;14.00;77.10;;;;;;5052527;28;20340;-67
2022/04/30 02:57:22;;;;;;;;;;;14.00;76.60;;;;;;5057960;28;19950;-69
2022/04/30 02:59:53;;;;;;;;;;;14.00;76.60;;;;;;5053435;28;19936;-68
2022/04/30 03:02:20;;;;;;;;;;;13.90;76.50;;;;;;5057056;28;19994;-68
2022/04/30 03:04:48;;;;;;;;;;;14.00;76.70;;;;;;5057556;28;20645;-67
2022/04/30 03:07:14;;;;;;;;;;;14.00;76.70;;;;;;5055127;28;19962;-68
2022/04/30 03:09:41;;;;;;;;;;;13.90;76.80;;;;;;5061586;28;20347;-68
2022/04/30 03:12:09;;;;;;;;;;;13.90;76.80;;;;;;5059048;28;19928;-69
2022/04/30 03:14:35;;;;;;;;;;;13.90;76.80;;;;;;5059385;28;20027;-68
2022/04/30 03:22:32;;;;;;;;;;;13.80;76.90;;;;;;5053548;28;19944;-68
2022/04/30 03:24:59;;;;;;;;;;;13.80;76.90;;;;;;5054503;28;19928;-68
2022/04/30 03:27:25;;;;;;;;;;;13.80;77.00;;;;;;5058153;28;20395;-66
2022/04/30 03:29:52;;;;;;;;;;;13.80;77.10;;;;;;5059982;28;19967;-68
2022/04/30 03:32:19;;;;;;;;;;;13.70;77.20;;;;;;5057437;28;20326;-68
2022/04/30 03:34:47;;;;;;;;;;;13.70;77.30;;;;;;5060272;28;20478;-66
2022/04/30 03:37:14;;;;;;;;;;;13.70;77.40;;;;;;5059670;28;19990;-67
2022/04/30 03:39:41;;;;;;;;;;;13.70;77.40;;;;;;5055927;28;20007;-67
2022/04/30 03:42:07;;;;;;;;;;;13.70;77.50;;;;;;5053441;28;20402;-69
2022/04/30 03:44:34;;;;;;;;;;;13.70;77.50;;;;;;5057464;28;19983;-67
2022/04/30 03:47:00;;;;;;;;;;;13.60;77.60;;;;;;5056088;28;19943;-69
2022/04/30 03:49:27;;;;;;;;;;;13.60;77.60;;;;;;5059708;28;20384;-67
2022/04/30 03:51:55;;;;;;;;;;;13.60;77.60;;;;;;5059017;28;19935;-68
2022/04/30 03:54:22;;;;;;;;;;;13.60;77.80;;;;;;5058560;28;19975;-68
2022/04/30 03:56:48;;;;;;;;;;;13.60;77.90;;;;;;5058779;28;20017;-66
2022/04/30 03:59:15;;;;;;;;;;;13.50;78.10;;;;;;5055619;28;19936;-68
2022/04/30 04:01:42;;;;;;;;;;;13.50;78.20;;;;;;5053256;28;19935;-67
2022/04/30 04:04:09;;;;;;;;;;;13.50;78.30;;;;;;5055803;28;20396;-69
2022/04/30 04:06:36;;;;;;;;;;;13.50;78.40;;;;;;5050921;28;19928;-68
2022/04/30 04:09:04;;;;;;;;;;;13.50;78.40;;;;;;5055385;28;19933;-69
2022/04/30 04:11:30;;;;;;;;;;;13.50;78.50;;;;;;5058050;28;19954;-68
2022/04/30 04:19:26;;;;;;;;;;;13.40;78.60;;;;;;5057334;28;20342;-68
2022/04/30 04:21:53;;;;;;;;;;;13.30;78.60;;;;;;5060247;28;19935;-69
2022/04/30 04:27:05;;;;;;;;;;;13.30;78.70;;;;;;5055804;28;20731;-67
2022/04/30 04:29:31;;;;;;;;;;;13.30;78.20;;;;;;5060858;28;19939;-68
2022/04/30 04:31:58;;;;;;;;;;;13.30;78.80;;;;;;5056810;28;20019;-67
2022/04/30 04:34:24;;;;;;;;;;;13.30;78.80;;;;;;5060399;28;19928;-69
2022/04/30 04:36:51;;;;;;;;;;;13.30;78.90;;;;;;5059119;28;20625;-66
2022/04/30 04:39:17;;;;;;;;;;;13.20;78.90;;;;;;5056835;28;19933;-67
2022/04/30 04:41:45;;;;;;;;;;;13.20;78.90;;;;;;5062782;28;20400;-67
2022/04/30 04:44:12;;;;;;;;;;;13.20;79.00;;;;;;5059404;28;19929;-68
2022/04/30 04:46:39;;;;;;;;;;;13.20;79.10;;;;;;5058042;28;19929;-68
2022/04/30 04:49:06;;;;;;;;;;;13.20;79.10;;;;;;5057281;28;19929;-66
2022/04/30 04:51:33;;;;;;;;;;;13.20;79.20;;;;;;5061572;28;19932;-68
2022/04/30 04:54:00;;;;;;;;;;;13.10;79.10;;;;;;5059693;28;20505;-68
2022/04/30 04:56:27;;;;;;;;;;;13.10;79.20;;;;;;5051312;28;19928;-68
2022/04/30 04:58:55;;;;;;;;;;;13.10;78.80;;;;;;5056767;28;19982;-68
2022/04/30 05:01:21;;;;;;;;;;;13.10;80.20;;;;;;5057519;28;19932;-67
2022/04/30 05:03:48;;;;;;;;;;;13.10;79.40;;;;;;5059344;28;19925;-68
2022/04/30 05:06:15;;;;;;;;;;;13.10;79.50;;;;;;5062265;28;19928;-67
2022/04/30 05:08:41;;;;;;;;;;;13.10;79.00;;;;;;5059434;28;20563;-66
2022/04/30 05:11:08;;;;;;;;;;;13.00;79.50;;;;;;5061550;28;19928;-68
2022/04/30 05:13:34;;;;;;;;;;;13.10;79.60;;;;;;5059460;28;19958;-67
2022/04/30 05:16:02;;;;;;;;;;;13.00;79.60;;;;;;5057138;28;20377;-67
2022/04/30 05:18:29;;;;;;;;;;;13.00;79.70;;;;;;5061248;28;19955;-67
2022/04/30 05:20:55;;;;;;;;;;;13.00;79.80;;;;;;5061605;28;20400;-68
2022/04/30 05:23:22;;;;;;;;;;;13.00;79.90;;;;;;5058821;28;19932;-67
2022/04/30 05:25:48;;;;;;;;;;;13.00;80.00;;;;;;5060622;28;19932;-68
2022/04/30 05:28:15;;;;;;;;;;;13.00;80.10;;;;;;5057768;28;19928;-67
2022/04/30 05:30:42;;;;;;;;;;;12.90;80.10;;;;;;5055879;28;19933;-68
2022/04/30 05:33:09;;;;;;;;;;;12.90;80.10;;;;;;5060024;28;20392;-68
2022/04/30 05:35:36;;;;;;;;;;;12.90;80.10;;;;;;5056966;28;19989;-68
2022/04/30 05:38:02;;;;;;;;;;;12.90;80.10;;;;;;5060444;28;19936;-68
2022/04/30 05:40:29;;;;;;;;;;;12.90;80.20;;;;;;5061434;28;19990;-66
2022/04/30 05:42:56;;;;;;;;;;;12.90;80.30;;;;;;5051137;28;20007;-67
2022/04/30 05:45:22;;;;;;;;;;;12.90;80.50;;;;;;5058413;28;19928;-68
2022/04/30 05:47:49;;;;;;;;;;;12.90;80.50;;;;;;5059672;28;19967;-68
2022/04/30 05:50:17;;;;;;;;;;;12.90;80.60;;;;;;5060968;28;20011;-67
2022/04/30 05:52:43;;;;;;;;;;;12.80;80.60;;;;;;5058080;28;19936;-69
2022/04/30 05:55:10;;;;;;;;;;;12.80;80.70;;;;;;5055261;28;19929;-68
2022/04/30 05:57:36;;;;;;;;;;;12.80;80.70;;;;;;5056225;28;19932;-67
2022/04/30 06:00:03;;;;;;;;;;;12.80;80.80;;;;;;5052700;28;19944;-69
2022/04/30 06:02:30;;;;;;;;;;;12.80;80.90;;;;;;5052014;28;20042;-67
2022/04/30 06:04:57;;;;;;;;;;;12.80;80.90;;;;;;5057478;28;20277;-68
2022/04/30 06:07:24;;;;;;;;;;;12.70;81.00;;;;;;5055820;28;20029;-67
2022/04/30 06:09:51;;;;;;;;;;;12.70;81.10;;;;;;5056094;28;20395;-68
2022/04/30 06:12:17;;;;;;;;;;;12.70;81.10;;;;;;5049541;28;19932;-67
2022/04/30 06:14:44;;;;;;;;;;;12.70;81.20;;;;;;5057143;28;19929;-67
2022/04/30 06:17:11;;;;;;;;;;;12.70;81.30;;;;;;5049155;28;19928;-67
2022/04/30 06:19:37;;;;;;;;;;;12.70;81.30;;;;;;5055757;28;19936;-67
2022/04/30 06:22:04;;;;;;;;;;;12.70;81.40;;;;;;5059587;28;19979;-68
2022/04/30 06:24:32;;;;;;;;;;;12.70;81.50;;;;;;5053684;28;19928;-70
2022/04/30 06:26:59;;;;;;;;;;;12.70;81.60;;;;;;5054236;28;19933;-66
2022/04/30 06:29:25;;;;;;;;;;;12.70;81.60;;;;;;5057378;28;19933;-68
2022/04/30 06:31:52;;;;;;;;;;;12.60;81.60;;;;;;5055053;28;20573;-68
2022/04/30 06:34:19;;;;;;;;;;;12.70;81.70;;;;;;5051444;28;20126;-68
2022/04/30 06:36:45;;;;;;;;;;;12.60;81.70;;;;;;5049747;28;20335;-68
2022/04/30 06:39:12;;;;;;;;;;;12.60;81.80;;;;;;5054994;28;20761;-67
2022/04/30 06:41:40;;;;;;;;;;;12.60;81.90;;;;;;5052935;28;19928;-69
2022/04/30 06:44:06;;;;;;;;;;;12.60;82.00;;;;;;5058752;28;20741;-69
2022/04/30 06:46:33;;;;;;;;;;;12.60;82.00;;;;;;5050587;28;21584;-68
2022/04/30 06:48:59;;;;;;;;;;;12.60;82.10;;;;;;5056239;28;19939;-67
2022/04/30 06:51:26;;;;;;;;;;;12.50;82.10;;;;;;5056993;28;19954;-67
2022/04/30 06:59:22;;;;;;;;;;;12.50;82.30;;;;;;5052729;28;20543;-67
2022/04/30 07:01:53;;;;;;;;;;;12.50;82.40;;;;;;5050160;28;20018;-69
2022/04/30 07:04:24;;;;;;;;;;;12.50;82.50;;;;;;5048174;28;20369;-68
2022/04/30 07:06:51;;;;;;;;;;;12.50;82.50;;;;;;5048814;28;19932;-68
2022/04/30 07:09:17;;;;;;;;;;;12.50;82.60;;;;;;5048593;28;20608;-67
2022/04/30 07:11:44;;;;;;;;;;;12.50;82.60;;;;;;5052139;28;19929;-68
2022/04/30 07:14:11;;;;;;;;;;;12.50;82.70;;;;;;5051539;28;19929;-66
2022/04/30 07:16:39;;;;;;;;;;;12.50;82.70;;;;;;5049818;28;20396;-69
2022/04/30 07:19:06;;;;;;;;;;;12.40;82.80;;;;;;5050354;28;19935;-68
2022/04/30 07:21:33;;;;;;;;;;;12.40;82.80;;;;;;5055774;28;20477;-68
2022/04/30 07:23:59;;;;;;;;;;;12.40;82.80;;;;;;5047648;28;20451;-67
2022/04/30 07:26:26;;;;;;;;;;;12.50;83.00;;;;;;5058091;28;20412;-68
2022/04/30 07:28:53;;;;;;;;;;;12.40;82.90;;;;;;5048598;28;20545;-68
2022/04/30 07:31:19;;;;;;;;;;;12.40;83.00;;;;;;5052493;28;19940;-68
2022/04/30 07:33:48;;;;;;;;;;;12.40;83.80;;;;;;5058604;28;20017;-68
2022/04/30 07:36:14;;;;;;;;;;;12.40;83.10;;;;;;5058265;28;20406;-66
2022/04/30 07:38:41;;;;;;;;;;;12.40;83.20;;;;;;5055206;28;19999;-66
2022/04/30 07:41:07;;;;;;;;;;;12.40;83.20;;;;;;5057072;28;19982;-68
2022/04/30 07:43:34;;;;;;;;;;;12.40;83.30;;;;;;5057329;28;21800;-68
2022/04/30 07:46:00;;;;;;;;;;;12.40;83.40;;;;;;5056489;28;19944;-68
2022/04/30 07:48:27;;;;;;;;;;;12.30;83.40;;;;;;5057162;28;20013;-68
2022/04/30 07:50:57;;;;;;;;;;;12.30;83.50;;;;;;5064233;28;19959;-67
2022/04/30 07:53:24;;;;;;;;;;;12.30;83.70;;;;;;5060491;28;19928;-69
2022/04/30 07:55:51;;;;;;;;;;;12.30;83.70;;;;;;5061025;28;19939;-68
2022/04/30 07:58:17;;;;;;;;;;;12.30;83.70;;;;;;5060385;28;19986;-68
2022/04/30 08:00:44;;;;;;;;;;;12.30;83.80;;;;;;5058180;28;19952;-68
2022/04/30 08:03:10;;;;;;;;;;;12.30;83.80;;;;;;5061928;28;20533;-67
2022/04/30 08:05:37;;;;;;;;;;;12.30;83.80;;;;;;5060850;28;19936;-68
2022/04/30 08:08:06;;;;;;;;;;;12.30;83.90;;;;;;5061205;28;19928;-68
2022/04/30 08:10:32;;;;;;;;;;;12.30;84.00;;;;;;5062007;28;19932;-68
2022/04/30 08:12:59;;;;;;;;;;;12.30;84.10;;;;;;5062321;28;19935;-68
2022/04/30 08:15:26;;;;;;;;;;;12.30;84.10;;;;;;5061709;28;19933;-68
2022/04/30 08:17:53;;;;;;;;;;;12.30;84.20;;;;;;5060912;28;19936;-68
2022/04/30 08:20:20;;;;;;;;;;;12.30;84.20;;;;;;5063518;28;20479;-68
2022/04/30 08:22:47;;;;;;;;;;;12.20;84.20;;;;;;5060369;28;19928;-66
2022/04/30 08:25:15;;;;;;;;;;;12.20;84.20;;;;;;5059786;28;19928;-68
2022/04/30 08:27:42;;;;;;;;;;;12.20;84.30;;;;;;5063038;28;19936;-67
2022/04/30 08:30:10;;;;;;;;;;;12.20;84.30;;;;;;5058048;28;20419;-67
2022/04/30 08:32:37;;;;;;;;;;;12.20;84.40;;;;;;5055771;28;19935;-67
2022/04/30 08:35:03;;;;;;;;;;;12.20;84.40;;;;;;5063511;28;20023;-68
2022/04/30 08:37:30;;;;;;;;;;;12.20;84.40;;;;;;5058769;28;20731;-66
2022/04/30 08:39:56;;;;;;;;;;;12.20;84.50;;;;;;5059928;28;20388;-68
2022/04/30 08:42:25;;;;;;;;;;;12.20;84.60;;;;;;5059810;28;19932;-68
2022/04/30 08:44:51;;;;;;;;;;;12.10;84.50;;;;;;5055470;28;20631;-67
2022/04/30 08:47:18;;;;;;;;;;;12.20;84.70;;;;;;5058706;28;19932;-68
2022/04/30 08:49:45;;;;;;;;;;;12.20;84.80;;;;;;5056175;28;19940;-68
2022/04/30 08:52:12;;;;;;;;;;;12.20;84.80;;;;;;5056767;28;19986;-67
2022/04/30 08:54:39;;;;;;;;;;;12.10;84.80;;;;;;5059713;28;20056;-67
2022/04/30 08:57:05;;;;;;;;;;;12.20;85.10;;;;;;5060591;28;20000;-67
2022/04/30 08:59:33;;;;;;;;;;;12.10;85.10;;;;;;5058844;28;20286;-68
2022/04/30 09:02:01;;;;;;;;;;;12.10;85.20;;;;;;5055850;28;19939;-68
2022/04/30 09:04:41;;;;;;;;;;;12.10;85.20;;;;;;5054961;28;19929;-67
2022/04/30 09:07:12;;;;;;;;;;;12.10;85.20;;;;;;5054334;28;20663;-68
2022/04/30 09:09:39;;;;;;;;;;;12.10;85.20;;;;;;5059374;28;20005;-68
2022/04/30 09:12:06;;;;;;;;;;;12.10;85.10;;;;;;5057723;28;19928;-66
2022/04/30 09:14:34;;;;;;;;;;;12.10;85.20;;;;;;5057717;28;19939;-68
2022/04/30 09:17:03;;;;;;;;;;;12.10;85.30;;;;;;5050438;28;19972;-68
2022/04/30 09:19:29;;;;;;;;;;;12.10;85.40;;;;;;5058451;28;20328;-68
2022/04/30 09:21:56;;;;;;;;;;;12.10;85.40;;;;;;5061156;28;19925;-68
2022/04/30 09:24:22;;;;;;;;;;;12.10;85.50;;;;;;5057632;28;20446;-69
2022/04/30 09:26:49;;;;;;;;;;;12.10;85.60;;;;;;5058301;28;19936;-68
2022/04/30 09:29:22;;;;;;;;;;;12.00;85.60;;;;;;5059065;28;19928;-67
2022/04/30 09:31:51;;;;;;;;;;;12.10;85.80;;;;;;5059536;28;19932;-69
2022/04/30 09:39:47;;;;;;;;;;;12.00;86.00;;;;;;5053600;28;20081;-68
2022/04/30 09:42:13;;;;;;;;;;;12.10;86.10;;;;;;5054698;28;19983;-68
2022/04/30 09:44:40;;;;;;;;;;;12.00;86.20;;;;;;5056850;28;20299;-68
2022/04/30 09:47:09;;;;;;;;;;;12.00;86.40;;;;;;5052262;28;19928;-68
2022/04/30 09:55:04;;;;;;;;;;;12.00;86.50;;;;;;5054589;28;19932;-69
2022/04/30 09:57:32;;;;;;;;;;;12.00;86.60;;;;;;5056475;28;19971;-68
2022/04/30 10:00:00;;;;;;;;;;;12.00;86.60;;;;;;5054241;28;19936;-68
2022/04/30 10:02:28;;;;;;;;;;;12.00;86.60;;;;;;5054683;28;19929;-68
2022/04/30 10:04:55;;;;;;;;;;;12.00;86.60;;;;;;5060332;28;19928;-68
2022/04/30 10:07:24;;;;;;;;;;;12.00;86.60;;;;;;5055804;28;19928;-66
2022/04/30 10:09:55;;;;;;;;;;;12.00;86.80;;;;;;5057181;28;20383;-68
2022/04/30 10:12:26;;;;;;;;;;;12.00;86.90;;;;;;5061219;28;20331;-68
2022/04/30 10:14:58;;;;;;;;;;;12.00;87.00;;;;;;5058540;28;19928;-68
2022/04/30 10:17:26;;;;;;;;;;;12.00;87.00;;;;;;5059642;28;20401;-68
2022/04/30 10:20:04;;;;;;;;;;;12.00;87.00;;;;;;5061342;28;20407;-69
2022/04/30 10:22:31;;;;;;;;;;;12.00;87.00;;;;;;5057631;28;19939;-68
2022/04/30 10:24:58;;;;;;;;;;;12.00;87.00;;;;;;5053814;28;19932;-67
2022/04/30 10:27:25;;;;;;;;;;;12.00;86.90;;;;;;5058189;28;19928;-69
2022/04/30 10:29:55;;;;;;;;;;;12.00;86.90;;;;;;5057544;28;19968;-68
2022/04/30 10:32:26;;;;;;;;;;;12.00;87.00;;;;;;5049043;28;20411;-68
2022/04/30 10:34:52;;;;;;;;;;;12.00;87.00;;;;;;5057497;28;19928;-68
2022/04/30 10:37:28;;;;;;;;;;;12.00;86.90;;;;;;5054897;28;19928;-67
2022/04/30 10:39:56;;;;;;;;;;;12.00;86.90;;;;;;5052611;28;19951;-68
2022/04/30 10:42:27;;;;;;;;;;;12.00;87.10;;;;;;5058933;28;20391;-69
2022/04/30 10:44:56;;;;;;;;;;;12.00;87.20;;;;;;5054748;28;22350;-68
2022/04/30 10:47:22;;;;;;;;;;;12.00;87.20;;;;;;5054220;28;19928;-68
2022/04/30 10:49:49;;;;;;;;;;;12.10;87.30;;;;;;5051072;28;20006;-68
2022/04/30 10:52:21;;;;;;;;;;;12.00;87.30;;;;;;5056214;28;20042;-68
2022/04/30 10:54:50;;;;;;;;;;;12.00;87.30;;;;;;5052342;28;19958;-68
2022/04/30 10:57:17;;;;;;;;;;;12.00;87.40;;;;;;5054500;28;20452;-66
2022/04/30 10:59:43;;;;;;;;;;;12.00;87.40;;;;;;5053957;28;19928;-68
2022/04/30 11:02:11;;;;;;;;;;;12.00;87.40;;;;;;5052817;28;19929;-68
2022/04/30 11:04:38;;;;;;;;;;;12.00;87.50;;;;;;5049256;28;20019;-68
2022/04/30 11:07:05;;;;;;;;;;;12.00;87.50;;;;;;5055261;28;19985;-67
2022/04/30 11:09:33;;;;;;;;;;;12.00;87.50;;;;;;5060250;28;20594;-67
2022/04/30 11:12:01;;;;;;;;;;;12.00;87.30;;;;;;5051034;28;20758;-67
2022/04/30 11:14:28;;;;;;;;;;;12.00;87.30;;;;;;5056349;28;19974;-67
2022/04/30 11:16:55;;;;;;;;;;;12.10;87.30;;;;;;5050824;28;20346;-67
2022/04/30 11:19:23;;;;;;;;;;;12.00;87.30;;;;;;5057868;28;19928;-68
2022/04/30 11:21:50;;;;;;;;;;;12.10;87.40;;;;;;5057289;28;19938;-67
2022/04/30 11:24:23;;;;;;;;;;;12.10;87.50;;;;;;5054934;28;20835;-67
2022/04/30 11:26:53;;;;;;;;;;;12.10;87.70;;;;;;5061957;28;20015;-67
2022/04/30 11:29:21;;;;;;;;;;;12.00;87.70;;;;;;5052561;28;20293;-67
2022/04/30 11:31:50;;;;;;;;;;;12.10;87.80;;;;;;5059758;28;19928;-67
2022/04/30 11:34:18;;;;;;;;;;;12.10;87.70;;;;;;5061874;28;19966;-67
2022/04/30 11:36:45;;;;;;;;;;;12.10;87.70;;;;;;5061431;28;19928;-68
2022/04/30 11:39:12;;;;;;;;;;;12.10;87.70;;;;;;5064935;28;19963;-66
2022/04/30 11:41:39;;;;;;;;;;;12.00;87.70;;;;;;5062640;28;19954;-66
2022/04/30 11:44:06;;;;;;;;;;;12.10;87.70;;;;;;5062230;28;20745;-67
2022/04/30 11:46:35;;;;;;;;;;;12.10;87.60;;;;;;5061999;28;19982;-68
2022/04/30 11:49:07;;;;;;;;;;;12.10;87.50;;;;;;5058451;28;19928;-67
2022/04/30 11:51:33;;;;;;;;;;;12.10;87.50;;;;;;5054544;28;19928;-68
2022/04/30 11:54:01;;;;;;;;;;;12.20;87.70;;;;;;5057335;28;19929;-66
2022/04/30 11:56:28;;;;;;;;;;;12.20;87.70;;;;;;5056728;28;19932;-68
2022/04/30 11:58:55;;;;;;;;;;;12.20;87.70;;;;;;5053337;28;20768;-67
2022/04/30 12:01:22;;;;;;;;;;;12.20;87.70;;;;;;5057283;28;19933;-67
2022/04/30 12:03:55;;;;;;;;;;;12.20;88.00;;;;;;5058053;28;21138;-68
2022/04/30 12:06:21;;;;;;;;;;;12.20;88.30;;;;;;5060006;28;19940;-67
2022/04/30 12:08:48;;;;;;;;;;;12.20;88.50;;;;;;5058896;28;19932;-67
2022/04/30 12:11:14;;;;;;;;;;;12.20;88.50;;;;;;5056301;28;19974;-68
2022/04/30 12:13:41;;;;;;;;;;;12.30;88.40;;;;;;5056082;28;19940;-68
2022/04/30 12:16:08;;;;;;;;;;;12.30;88.80;;;;;;5060147;28;19928;-68
2022/04/30 12:26:54;;;;;;;;;;;12.30;88.60;;;;;;5060392;28;20398;-69
2022/04/30 12:29:21;;;;;;;;;;;12.30;88.60;;;;;;5063619;28;20402;-69
2022/04/30 12:31:48;;;;;;;;;;;12.30;88.70;;;;;;5056607;28;20331;-68
2022/04/30 12:34:17;;;;;;;;;;;12.30;88.50;;;;;;5052206;28;19933;-68
2022/04/30 12:36:52;;;;;;;;;;;12.30;88.40;;;;;;5055908;28;20030;-67
2022/04/30 12:39:19;;;;;;;;;;;12.30;88.50;;;;;;5057823;28;20320;-68
2022/04/30 12:41:45;;;;;;;;;;;12.30;88.60;;;;;;5057089;28;19932;-68
2022/04/30 12:44:12;;;;;;;;;;;12.30;88.70;;;;;;5057200;28;19928;-66
2022/04/30 12:46:42;;;;;;;;;;;12.30;88.50;;;;;;5053921;28;19932;-69
2022/04/30 12:49:08;;;;;;;;;;;12.30;88.50;;;;;;5056353;28;19928;-68
2022/04/30 12:51:35;;;;;;;;;;;12.30;88.30;;;;;;5061452;28;19939;-68
2022/04/30 12:54:03;;;;;;;;;;;12.30;88.30;;;;;;5059306;28;19929;-68
2022/04/30 12:56:31;;;;;;;;;;;12.40;88.60;;;;;;5062057;28;20681;-68
2022/04/30 12:58:58;;;;;;;;;;;12.40;88.80;;;;;;5058687;28;20443;-68
2022/04/30 13:01:25;;;;;;;;;;;12.40;88.90;;;;;;5061140;28;19963;-68
2022/04/30 13:03:51;;;;;;;;;;;12.40;88.70;;;;;;5059555;28;21183;-69
2022/04/30 13:06:18;;;;;;;;;;;12.40;88.40;;;;;;5061273;28;19986;-67
2022/04/30 13:14:14;;;;;;;;;;;12.40;88.40;;;;;;5057157;28;19935;-68
2022/04/30 13:16:40;;;;;;;;;;;12.50;88.30;;;;;;5056056;28;20497;-67
2022/04/30 13:19:07;;;;;;;;;;;12.50;88.00;;;;;;5059868;28;20346;-68
2022/04/30 13:21:34;;;;;;;;;;;12.40;87.80;;;;;;5062119;28;20915;-68
2022/04/30 13:24:00;;;;;;;;;;;12.50;87.80;;;;;;5058280;28;20388;-68
2022/04/30 13:26:27;;;;;;;;;;;12.50;87.50;;;;;;5057012;28;19936;-68
2022/04/30 13:28:55;;;;;;;;;;;12.40;87.20;;;;;;5058586;28;20050;-68
2022/04/30 13:31:22;;;;;;;;;;;12.40;87.10;;;;;;5055974;28;19932;-69
2022/04/30 13:33:49;;;;;;;;;;;12.50;87.10;;;;;;5057481;28;19929;-68
2022/04/30 13:36:15;;;;;;;;;;;12.50;87.00;;;;;;5050767;28;19941;-67
2022/04/30 13:38:45;;;;;;;;;;;12.50;86.90;;;;;;5060146;28;19986;-66
2022/04/30 13:41:11;;;;;;;;;;;12.50;87.00;;;;;;5054981;28;19935;-68
2022/04/30 13:43:38;;;;;;;;;;;12.50;87.00;;;;;;5059014;28;19932;-68
2022/04/30 13:46:06;;;;;;;;;;;12.50;86.90;;;;;;5057803;28;19939;-68
2022/04/30 13:48:33;;;;;;;;;;;12.50;86.70;;;;;;5061008;28;19929;-68
2022/04/30 13:51:00;;;;;;;;;;;12.50;86.50;;;;;;5060714;28;19932;-68
2022/04/30 13:53:27;;;;;;;;;;;12.50;86.20;;;;;;5056751;28;20250;-68
2022/04/30 13:55:54;;;;;;;;;;;12.50;86.10;;;;;;5059180;28;19932;-68
2022/04/30 13:58:21;;;;;;;;;;;12.50;86.00;;;;;;5059088;28;19928;-69
2022/04/30 14:00:47;;;;;;;;;;;12.50;85.80;;;;;;5054036;28;20466;-67
2022/04/30 14:03:16;;;;;;;;;;;12.50;85.70;;;;;;5054732;28;19967;-69
2022/04/30 14:05:42;;;;;;;;;;;12.50;85.80;;;;;;5058401;28;20134;-68
2022/04/30 14:08:09;;;;;;;;;;;12.60;85.70;;;;;;5061366;28;20431;-67
2022/04/30 14:10:36;;;;;;;;;;;12.60;85.80;;;;;;5058902;28;20350;-67
2022/04/30 14:15:44;;;;;;;;;;;12.60;85.70;;;;;;5060086;28;19924;-68
2022/04/30 14:18:16;;;;;;;;;;;12.60;85.70;;;;;;5061587;28;19929;-67
2022/04/30 14:20:45;;;;;;;;;;;12.60;85.60;;;;;;5060239;28;19928;-68
2022/04/30 14:23:12;;;;;;;;;;;12.60;85.60;;;;;;5055289;28;19936;-68
2022/04/30 14:25:38;;;;;;;;;;;12.60;85.50;;;;;;5053630;28;20027;-69
2022/04/30 14:28:05;;;;;;;;;;;12.50;85.30;;;;;;5057573;28;19935;-69
2022/04/30 14:30:33;;;;;;;;;;;12.60;85.30;;;;;;5056792;28;20018;-68
2022/04/30 14:32:59;;;;;;;;;;;12.60;85.30;;;;;;5057481;28;19982;-69
2022/04/30 14:35:26;;;;;;;;;;;12.60;85.20;;;;;;5058038;28;20442;-69
2022/04/30 14:37:54;;;;;;;;;;;12.60;85.20;;;;;;5058153;28;20303;-69
2022/04/30 14:40:20;;;;;;;;;;;12.60;85.20;;;;;;5058622;28;20347;-67
2022/04/30 14:42:47;;;;;;;;;;;12.60;85.20;;;;;;5057673;28;19928;-68
2022/04/30 14:45:17;;;;;;;;;;;12.50;85.00;;;;;;5059820;28;19970;-68
2022/04/30 14:47:44;;;;;;;;;;;12.60;85.00;;;;;;5059420;28;19970;-68
2022/04/30 14:50:10;;;;;;;;;;;12.50;84.90;;;;;;5062745;28;19951;-68
2022/04/30 14:52:37;;;;;;;;;;;12.50;84.90;;;;;;5057663;28;19933;-69
2022/04/30 14:55:06;;;;;;;;;;;12.60;84.90;;;;;;5054755;28;20418;-68
2022/04/30 14:57:33;;;;;;;;;;;12.60;84.70;;;;;;5059808;28;20589;-68
2022/04/30 14:59:59;;;;;;;;;;;12.60;84.60;;;;;;5055809;28;19924;-68
2022/04/30 15:02:26;;;;;;;;;;;12.60;84.60;;;;;;5059753;28;19970;-68
2022/04/30 15:04:52;;;;;;;;;;;12.50;84.40;;;;;;5052752;28;19974;-68
2022/04/30 15:07:19;;;;;;;;;;;12.50;84.40;;;;;;5048013;28;19925;-68
2022/04/30 15:09:45;;;;;;;;;;;12.60;84.40;;;;;;5059796;28;20003;-67